sensor_id;sensor_type;location;lat;lon;timestamp;P1;durP1;ratioP1;P2;durP2;ratioP2
23449;SDS011;11897;45.438;12.128;2023-03-05T00:01:57;28.40;;;13.77;;
23449;SDS011;11897;45.438;12.128;2023-03-05T00:04:24;31.13;;;12.80;;
23449;SDS011;11897;45.438;12.128;2023-03-05T00:06:51;29.43;;;13.83;;
23449;SDS011;11897;45.438;12.128;2023-03-05T00:09:20;28.27;;;13.10;;
23449;SDS011;11897;45.438;12.128;2023-03-05T00:11:47;31.97;;;13.80;;
23449;SDS011;11897;45.438;12.128;2023-03-05T00:14:13;29.67;;;12.50;;
23449;SDS011;11897;45.438;12.128;2023-03-05T00:16:40;32.00;;;13.00;;
23449;SDS011;11897;45.438;12.128;2023-03-05T00:19:09;24.23;;;11.50;;
23449;SDS011;11897;45.438;12.128;2023-03-05T00:21:37;30.40;;;12.67;;
23449;SDS011;11897;45.438;12.128;2023-03-05T00:24:04;29.43;;;12.17;;
23449;SDS011;11897;45.438;12.128;2023-03-05T00:26:33;29.30;;;12.43;;
23449;SDS011;11897;45.438;12.128;2023-03-05T00:29:00;26.33;;;12.77;;
23449;SDS011;11897;45.438;12.128;2023-03-05T00:31:28;27.43;;;12.17;;
23449;SDS011;11897;45.438;12.128;2023-03-05T00:33:56;27.17;;;13.37;;
23449;SDS011;11897;45.438;12.128;2023-03-05T00:36:24;30.23;;;13.10;;
23449;SDS011;11897;45.438;12.128;2023-03-05T00:38:51;28.60;;;13.17;;
23449;SDS011;11897;45.438;12.128;2023-03-05T00:41:18;27.47;;;12.37;;
23449;SDS011;11897;45.438;12.128;2023-03-05T00:43:45;26.00;;;12.57;;
23449;SDS011;11897;45.438;12.128;2023-03-05T00:46:12;26.90;;;11.93;;
23449;SDS011;11897;45.438;12.128;2023-03-05T00:48:39;25.17;;;11.37;;
23449;SDS011;11897;45.438;12.128;2023-03-05T00:51:06;23.43;;;11.87;;
23449;SDS011;11897;45.438;12.128;2023-03-05T00:53:34;18.27;;;9.80;;
23449;SDS011;11897;45.438;12.128;2023-03-05T00:56:03;17.87;;;8.83;;
23449;SDS011;11897;45.438;12.128;2023-03-05T00:58:29;18.33;;;9.20;;
23449;SDS011;11897;45.438;12.128;2023-03-05T01:00:57;16.93;;;8.83;;
23449;SDS011;11897;45.438;12.128;2023-03-05T01:03:24;16.93;;;9.23;;
23449;SDS011;11897;45.438;12.128;2023-03-05T01:05:51;21.60;;;9.07;;
23449;SDS011;11897;45.438;12.128;2023-03-05T01:08:18;24.43;;;8.83;;
23449;SDS011;11897;45.438;12.128;2023-03-05T01:10:46;24.80;;;10.87;;
23449;SDS011;11897;45.438;12.128;2023-03-05T01:13:12;22.53;;;9.90;;
23449;SDS011;11897;45.438;12.128;2023-03-05T01:15:39;29.73;;;10.13;;
23449;SDS011;11897;45.438;12.128;2023-03-05T01:18:06;18.23;;;9.30;;
23449;SDS011;11897;45.438;12.128;2023-03-05T01:20:32;18.13;;;7.83;;
23449;SDS011;11897;45.438;12.128;2023-03-05T01:22:59;22.77;;;10.87;;
23449;SDS011;11897;45.438;12.128;2023-03-05T01:25:26;20.40;;;7.93;;
23449;SDS011;11897;45.438;12.128;2023-03-05T01:27:56;21.50;;;10.93;;
23449;SDS011;11897;45.438;12.128;2023-03-05T01:30:23;21.70;;;9.77;;
23449;SDS011;11897;45.438;12.128;2023-03-05T01:32:50;21.23;;;10.27;;
23449;SDS011;11897;45.438;12.128;2023-03-05T01:35:18;30.37;;;9.77;;
23449;SDS011;11897;45.438;12.128;2023-03-05T01:37:45;16.97;;;8.10;;
23449;SDS011;11897;45.438;12.128;2023-03-05T01:40:16;15.10;;;8.20;;
23449;SDS011;11897;45.438;12.128;2023-03-05T01:42:48;20.10;;;9.93;;
23449;SDS011;11897;45.438;12.128;2023-03-05T01:45:22;23.20;;;10.30;;
23449;SDS011;11897;45.438;12.128;2023-03-05T01:47:49;28.17;;;12.30;;
23449;SDS011;11897;45.438;12.128;2023-03-05T01:50:17;29.87;;;10.93;;
23449;SDS011;11897;45.438;12.128;2023-03-05T01:52:47;22.43;;;10.63;;
23449;SDS011;11897;45.438;12.128;2023-03-05T01:55:16;16.60;;;8.97;;
23449;SDS011;11897;45.438;12.128;2023-03-05T01:57:43;25.00;;;10.90;;
23449;SDS011;11897;45.438;12.128;2023-03-05T02:00:12;26.63;;;9.87;;
23449;SDS011;11897;45.438;12.128;2023-03-05T02:02:40;18.50;;;9.97;;
23449;SDS011;11897;45.438;12.128;2023-03-05T02:05:12;19.13;;;9.23;;
23449;SDS011;11897;45.438;12.128;2023-03-05T02:07:40;22.30;;;9.57;;
23449;SDS011;11897;45.438;12.128;2023-03-05T02:10:16;21.87;;;9.83;;
23449;SDS011;11897;45.438;12.128;2023-03-05T02:12:43;16.23;;;8.37;;
23449;SDS011;11897;45.438;12.128;2023-03-05T02:15:10;18.50;;;8.77;;
23449;SDS011;11897;45.438;12.128;2023-03-05T02:17:37;16.67;;;9.07;;
23449;SDS011;11897;45.438;12.128;2023-03-05T02:20:06;18.37;;;8.83;;
23449;SDS011;11897;45.438;12.128;2023-03-05T02:22:34;17.30;;;9.37;;
23449;SDS011;11897;45.438;12.128;2023-03-05T02:25:09;19.30;;;8.90;;
23449;SDS011;11897;45.438;12.128;2023-03-05T02:27:37;20.90;;;9.60;;
23449;SDS011;11897;45.438;12.128;2023-03-05T02:30:05;18.80;;;7.73;;
23449;SDS011;11897;45.438;12.128;2023-03-05T02:32:32;15.73;;;9.73;;
23449;SDS011;11897;45.438;12.128;2023-03-05T02:34:58;15.00;;;8.43;;
23449;SDS011;11897;45.438;12.128;2023-03-05T02:37:26;21.73;;;9.33;;
23449;SDS011;11897;45.438;12.128;2023-03-05T02:39:54;22.47;;;10.30;;
23449;SDS011;11897;45.438;12.128;2023-03-05T02:42:21;24.80;;;9.87;;
23449;SDS011;11897;45.438;12.128;2023-03-05T02:44:52;24.47;;;10.93;;
23449;SDS011;11897;45.438;12.128;2023-03-05T02:47:19;24.70;;;11.27;;
23449;SDS011;11897;45.438;12.128;2023-03-05T02:49:49;27.30;;;11.67;;
23449;SDS011;11897;45.438;12.128;2023-03-05T02:52:17;28.03;;;11.70;;
23449;SDS011;11897;45.438;12.128;2023-03-05T02:54:47;33.47;;;12.93;;
23449;SDS011;11897;45.438;12.128;2023-03-05T02:57:19;19.57;;;10.40;;
23449;SDS011;11897;45.438;12.128;2023-03-05T02:59:47;28.23;;;11.77;;
23449;SDS011;11897;45.438;12.128;2023-03-05T03:02:16;24.77;;;10.73;;
23449;SDS011;11897;45.438;12.128;2023-03-05T03:04:43;30.67;;;11.47;;
23449;SDS011;11897;45.438;12.128;2023-03-05T03:07:10;31.27;;;12.23;;
23449;SDS011;11897;45.438;12.128;2023-03-05T03:09:37;23.77;;;10.63;;
23449;SDS011;11897;45.438;12.128;2023-03-05T03:12:04;19.77;;;10.30;;
23449;SDS011;11897;45.438;12.128;2023-03-05T03:14:34;26.87;;;10.43;;
23449;SDS011;11897;45.438;12.128;2023-03-05T03:17:03;24.30;;;12.07;;
23449;SDS011;11897;45.438;12.128;2023-03-05T03:19:30;25.83;;;11.83;;
23449;SDS011;11897;45.438;12.128;2023-03-05T03:21:57;29.10;;;11.43;;
23449;SDS011;11897;45.438;12.128;2023-03-05T03:24:25;23.97;;;12.47;;
23449;SDS011;11897;45.438;12.128;2023-03-05T03:26:52;29.87;;;12.47;;
23449;SDS011;11897;45.438;12.128;2023-03-05T03:29:18;28.87;;;12.27;;
23449;SDS011;11897;45.438;12.128;2023-03-05T03:31:46;27.37;;;12.17;;
23449;SDS011;11897;45.438;12.128;2023-03-05T03:34:13;27.93;;;12.97;;
23449;SDS011;11897;45.438;12.128;2023-03-05T03:36:40;31.27;;;13.30;;
23449;SDS011;11897;45.438;12.128;2023-03-05T03:39:07;26.23;;;12.43;;
23449;SDS011;11897;45.438;12.128;2023-03-05T03:41:35;32.57;;;14.97;;
23449;SDS011;11897;45.438;12.128;2023-03-05T03:44:02;26.60;;;10.87;;
23449;SDS011;11897;45.438;12.128;2023-03-05T03:46:31;34.50;;;13.30;;
23449;SDS011;11897;45.438;12.128;2023-03-05T03:48:59;24.63;;;11.80;;
23449;SDS011;11897;45.438;12.128;2023-03-05T03:51:27;24.47;;;11.33;;
23449;SDS011;11897;45.438;12.128;2023-03-05T03:53:55;33.93;;;12.93;;
23449;SDS011;11897;45.438;12.128;2023-03-05T03:56:23;31.50;;;11.37;;
23449;SDS011;11897;45.438;12.128;2023-03-05T03:58:50;26.27;;;12.10;;
23449;SDS011;11897;45.438;12.128;2023-03-05T04:01:17;31.73;;;13.07;;
23449;SDS011;11897;45.438;12.128;2023-03-05T04:03:45;31.27;;;13.13;;
23449;SDS011;11897;45.438;12.128;2023-03-05T04:06:15;27.40;;;13.43;;
23449;SDS011;11897;45.438;12.128;2023-03-05T04:08:43;24.73;;;11.90;;
23449;SDS011;11897;45.438;12.128;2023-03-05T04:11:09;23.77;;;11.20;;
23449;SDS011;11897;45.438;12.128;2023-03-05T04:13:36;29.83;;;12.93;;
23449;SDS011;11897;45.438;12.128;2023-03-05T04:16:03;32.63;;;11.97;;
23449;SDS011;11897;45.438;12.128;2023-03-05T04:18:30;24.67;;;11.57;;
23449;SDS011;11897;45.438;12.128;2023-03-05T04:20:56;25.10;;;11.83;;
23449;SDS011;11897;45.438;12.128;2023-03-05T04:23:25;27.93;;;12.07;;
23449;SDS011;11897;45.438;12.128;2023-03-05T04:25:54;23.23;;;10.87;;
23449;SDS011;11897;45.438;12.128;2023-03-05T04:28:22;26.67;;;12.17;;
23449;SDS011;11897;45.438;12.128;2023-03-05T04:30:49;25.43;;;11.30;;
23449;SDS011;11897;45.438;12.128;2023-03-05T04:33:16;21.57;;;10.93;;
23449;SDS011;11897;45.438;12.128;2023-03-05T04:35:43;25.43;;;11.50;;
23449;SDS011;11897;45.438;12.128;2023-03-05T04:38:09;28.30;;;13.50;;
23449;SDS011;11897;45.438;12.128;2023-03-05T04:40:38;20.37;;;11.10;;
23449;SDS011;11897;45.438;12.128;2023-03-05T04:43:05;35.13;;;12.20;;
23449;SDS011;11897;45.438;12.128;2023-03-05T04:45:33;22.07;;;11.30;;
23449;SDS011;11897;45.438;12.128;2023-03-05T04:47:59;27.73;;;12.27;;
23449;SDS011;11897;45.438;12.128;2023-03-05T04:50:28;27.07;;;12.77;;
23449;SDS011;11897;45.438;12.128;2023-03-05T04:52:55;30.43;;;12.30;;
23449;SDS011;11897;45.438;12.128;2023-03-05T04:55:22;25.67;;;11.27;;
23449;SDS011;11897;45.438;12.128;2023-03-05T04:57:50;26.37;;;11.10;;
23449;SDS011;11897;45.438;12.128;2023-03-05T05:00:20;28.90;;;10.70;;
23449;SDS011;11897;45.438;12.128;2023-03-05T05:02:48;35.10;;;11.17;;
23449;SDS011;11897;45.438;12.128;2023-03-05T05:05:16;27.83;;;11.37;;
23449;SDS011;11897;45.438;12.128;2023-03-05T05:07:44;23.83;;;10.70;;
23449;SDS011;11897;45.438;12.128;2023-03-05T05:10:12;31.50;;;11.50;;
23449;SDS011;11897;45.438;12.128;2023-03-05T05:12:39;28.00;;;11.07;;
23449;SDS011;11897;45.438;12.128;2023-03-05T05:15:13;26.43;;;10.77;;
23449;SDS011;11897;45.438;12.128;2023-03-05T05:17:43;25.00;;;10.67;;
23449;SDS011;11897;45.438;12.128;2023-03-05T05:20:11;28.43;;;11.67;;
23449;SDS011;11897;45.438;12.128;2023-03-05T05:22:39;26.70;;;10.33;;
23449;SDS011;11897;45.438;12.128;2023-03-05T05:25:09;19.77;;;10.20;;
23449;SDS011;11897;45.438;12.128;2023-03-05T05:27:38;23.83;;;10.37;;
23449;SDS011;11897;45.438;12.128;2023-03-05T05:30:05;22.37;;;10.73;;
23449;SDS011;11897;45.438;12.128;2023-03-05T05:32:33;20.40;;;9.67;;
23449;SDS011;11897;45.438;12.128;2023-03-05T05:35:00;23.80;;;10.93;;
23449;SDS011;11897;45.438;12.128;2023-03-05T05:37:28;25.90;;;9.77;;
23449;SDS011;11897;45.438;12.128;2023-03-05T05:39:54;20.20;;;10.43;;
23449;SDS011;11897;45.438;12.128;2023-03-05T05:42:22;20.97;;;10.40;;
23449;SDS011;11897;45.438;12.128;2023-03-05T05:44:49;20.20;;;9.70;;
23449;SDS011;11897;45.438;12.128;2023-03-05T05:47:16;21.27;;;9.20;;
23449;SDS011;11897;45.438;12.128;2023-03-05T05:49:47;24.07;;;10.87;;
23449;SDS011;11897;45.438;12.128;2023-03-05T05:52:14;21.43;;;9.67;;
23449;SDS011;11897;45.438;12.128;2023-03-05T05:54:43;21.30;;;10.30;;
23449;SDS011;11897;45.438;12.128;2023-03-05T05:57:10;22.60;;;10.23;;
23449;SDS011;11897;45.438;12.128;2023-03-05T05:59:36;18.30;;;10.50;;
23449;SDS011;11897;45.438;12.128;2023-03-05T06:02:03;25.60;;;10.13;;
23449;SDS011;11897;45.438;12.128;2023-03-05T06:04:30;16.63;;;8.47;;
23449;SDS011;11897;45.438;12.128;2023-03-05T06:06:58;28.73;;;10.53;;
23449;SDS011;11897;45.438;12.128;2023-03-05T06:09:25;24.57;;;11.17;;
23449;SDS011;11897;45.438;12.128;2023-03-05T06:11:53;22.23;;;10.43;;
23449;SDS011;11897;45.438;12.128;2023-03-05T06:14:20;21.27;;;9.00;;
23449;SDS011;11897;45.438;12.128;2023-03-05T06:16:47;20.60;;;10.47;;
23449;SDS011;11897;45.438;12.128;2023-03-05T06:19:14;24.60;;;9.57;;
23449;SDS011;11897;45.438;12.128;2023-03-05T06:21:41;20.80;;;9.20;;
23449;SDS011;11897;45.438;12.128;2023-03-05T06:24:10;22.20;;;9.77;;
23449;SDS011;11897;45.438;12.128;2023-03-05T06:26:37;25.77;;;10.73;;
23449;SDS011;11897;45.438;12.128;2023-03-05T06:29:04;20.90;;;10.37;;
23449;SDS011;11897;45.438;12.128;2023-03-05T06:31:32;32.37;;;10.97;;
23449;SDS011;11897;45.438;12.128;2023-03-05T06:33:59;20.27;;;9.73;;
23449;SDS011;11897;45.438;12.128;2023-03-05T06:36:28;27.53;;;10.60;;
23449;SDS011;11897;45.438;12.128;2023-03-05T06:38:57;23.97;;;10.27;;
23449;SDS011;11897;45.438;12.128;2023-03-05T06:41:30;22.10;;;9.83;;
23449;SDS011;11897;45.438;12.128;2023-03-05T06:43:59;19.97;;;9.63;;
23449;SDS011;11897;45.438;12.128;2023-03-05T06:46:28;25.87;;;10.33;;
23449;SDS011;11897;45.438;12.128;2023-03-05T06:48:57;22.50;;;10.63;;
23449;SDS011;11897;45.438;12.128;2023-03-05T06:51:24;20.87;;;9.97;;
23449;SDS011;11897;45.438;12.128;2023-03-05T06:53:51;20.60;;;9.47;;
23449;SDS011;11897;45.438;12.128;2023-03-05T06:56:19;18.30;;;10.07;;
23449;SDS011;11897;45.438;12.128;2023-03-05T06:58:48;19.30;;;8.53;;
23449;SDS011;11897;45.438;12.128;2023-03-05T07:01:16;21.20;;;8.53;;
23449;SDS011;11897;45.438;12.128;2023-03-05T07:03:43;18.37;;;9.23;;
23449;SDS011;11897;45.438;12.128;2023-03-05T07:06:11;18.50;;;8.73;;
23449;SDS011;11897;45.438;12.128;2023-03-05T07:08:39;25.27;;;9.13;;
23449;SDS011;11897;45.438;12.128;2023-03-05T07:11:08;17.37;;;7.23;;
23449;SDS011;11897;45.438;12.128;2023-03-05T07:13:37;18.33;;;8.67;;
23449;SDS011;11897;45.438;12.128;2023-03-05T07:16:06;16.47;;;7.57;;
23449;SDS011;11897;45.438;12.128;2023-03-05T07:18:33;12.07;;;6.97;;
23449;SDS011;11897;45.438;12.128;2023-03-05T07:21:03;15.50;;;8.53;;
23449;SDS011;11897;45.438;12.128;2023-03-05T07:23:31;13.53;;;8.00;;
23449;SDS011;11897;45.438;12.128;2023-03-05T07:25:59;18.10;;;8.27;;
23449;SDS011;11897;45.438;12.128;2023-03-05T07:28:26;15.17;;;9.00;;
23449;SDS011;11897;45.438;12.128;2023-03-05T07:30:54;16.77;;;8.17;;
23449;SDS011;11897;45.438;12.128;2023-03-05T07:33:23;15.43;;;8.40;;
23449;SDS011;11897;45.438;12.128;2023-03-05T07:35:52;11.70;;;6.63;;
23449;SDS011;11897;45.438;12.128;2023-03-05T07:38:20;12.73;;;6.43;;
23449;SDS011;11897;45.438;12.128;2023-03-05T07:40:48;9.07;;;5.63;;
23449;SDS011;11897;45.438;12.128;2023-03-05T07:43:16;14.57;;;5.93;;
23449;SDS011;11897;45.438;12.128;2023-03-05T07:45:44;10.93;;;6.43;;
23449;SDS011;11897;45.438;12.128;2023-03-05T07:48:11;13.23;;;6.47;;
23449;SDS011;11897;45.438;12.128;2023-03-05T07:50:40;12.23;;;6.47;;
23449;SDS011;11897;45.438;12.128;2023-03-05T07:53:07;11.13;;;6.00;;
23449;SDS011;11897;45.438;12.128;2023-03-05T07:55:34;10.27;;;6.33;;
23449;SDS011;11897;45.438;12.128;2023-03-05T07:58:07;9.93;;;6.13;;
23449;SDS011;11897;45.438;12.128;2023-03-05T08:00:33;11.13;;;6.07;;
23449;SDS011;11897;45.438;12.128;2023-03-05T08:03:00;10.43;;;6.37;;
23449;SDS011;11897;45.438;12.128;2023-03-05T08:05:28;9.20;;;5.97;;
23449;SDS011;11897;45.438;12.128;2023-03-05T08:07:57;9.80;;;5.90;;
23449;SDS011;11897;45.438;12.128;2023-03-05T08:10:25;13.43;;;5.80;;
23449;SDS011;11897;45.438;12.128;2023-03-05T08:12:53;10.30;;;6.23;;
23449;SDS011;11897;45.438;12.128;2023-03-05T08:15:20;8.70;;;5.73;;
23449;SDS011;11897;45.438;12.128;2023-03-05T08:17:47;13.03;;;6.07;;
23449;SDS011;11897;45.438;12.128;2023-03-05T08:20:14;8.73;;;5.57;;
23449;SDS011;11897;45.438;12.128;2023-03-05T08:22:41;16.17;;;6.83;;
23449;SDS011;11897;45.438;12.128;2023-03-05T08:25:09;11.30;;;6.73;;
23449;SDS011;11897;45.438;12.128;2023-03-05T08:27:37;11.90;;;6.03;;
23449;SDS011;11897;45.438;12.128;2023-03-05T08:30:04;9.63;;;6.53;;
23449;SDS011;11897;45.438;12.128;2023-03-05T08:32:31;13.33;;;7.47;;
23449;SDS011;11897;45.438;12.128;2023-03-05T08:34:58;13.33;;;7.37;;
23449;SDS011;11897;45.438;12.128;2023-03-05T08:37:28;16.33;;;7.70;;
23449;SDS011;11897;45.438;12.128;2023-03-05T08:39:55;14.57;;;7.23;;
23449;SDS011;11897;45.438;12.128;2023-03-05T08:42:23;15.43;;;6.97;;
23449;SDS011;11897;45.438;12.128;2023-03-05T08:44:50;15.63;;;6.80;;
23449;SDS011;11897;45.438;12.128;2023-03-05T08:47:17;11.80;;;7.00;;
23449;SDS011;11897;45.438;12.128;2023-03-05T08:49:44;9.77;;;6.23;;
23449;SDS011;11897;45.438;12.128;2023-03-05T08:52:11;13.13;;;7.40;;
23449;SDS011;11897;45.438;12.128;2023-03-05T08:54:37;15.03;;;8.47;;
23449;SDS011;11897;45.438;12.128;2023-03-05T08:57:04;14.93;;;7.97;;
23449;SDS011;11897;45.438;12.128;2023-03-05T08:59:34;15.20;;;9.03;;
23449;SDS011;11897;45.438;12.128;2023-03-05T09:02:01;12.87;;;8.57;;
23449;SDS011;11897;45.438;12.128;2023-03-05T09:04:27;14.10;;;7.70;;
23449;SDS011;11897;45.438;12.128;2023-03-05T09:06:55;13.63;;;7.43;;
23449;SDS011;11897;45.438;12.128;2023-03-05T09:09:22;13.60;;;7.23;;
23449;SDS011;11897;45.438;12.128;2023-03-05T09:11:49;14.63;;;7.67;;
23449;SDS011;11897;45.438;12.128;2023-03-05T09:14:16;12.17;;;8.03;;
23449;SDS011;11897;45.438;12.128;2023-03-05T09:16:44;13.57;;;8.43;;
23449;SDS011;11897;45.438;12.128;2023-03-05T09:19:11;14.40;;;8.40;;
23449;SDS011;11897;45.438;12.128;2023-03-05T09:21:39;15.87;;;8.97;;
23449;SDS011;11897;45.438;12.128;2023-03-05T09:24:06;15.03;;;7.70;;
23449;SDS011;11897;45.438;12.128;2023-03-05T09:26:33;14.33;;;8.53;;
23449;SDS011;11897;45.438;12.128;2023-03-05T09:28:59;14.50;;;9.10;;
23449;SDS011;11897;45.438;12.128;2023-03-05T09:31:26;16.67;;;8.67;;
23449;SDS011;11897;45.438;12.128;2023-03-05T09:33:54;17.17;;;8.57;;
23449;SDS011;11897;45.438;12.128;2023-03-05T09:36:22;15.53;;;8.23;;
23449;SDS011;11897;45.438;12.128;2023-03-05T09:38:49;14.80;;;8.60;;
23449;SDS011;11897;45.438;12.128;2023-03-05T09:41:16;12.67;;;8.40;;
23449;SDS011;11897;45.438;12.128;2023-03-05T09:43:48;13.77;;;8.50;;
23449;SDS011;11897;45.438;12.128;2023-03-05T09:46:21;18.80;;;9.20;;
23449;SDS011;11897;45.438;12.128;2023-03-05T09:48:52;13.00;;;8.03;;
23449;SDS011;11897;45.438;12.128;2023-03-05T09:51:23;15.40;;;8.83;;
23449;SDS011;11897;45.438;12.128;2023-03-05T09:53:53;14.67;;;8.33;;
23449;SDS011;11897;45.438;12.128;2023-03-05T09:56:25;13.17;;;7.57;;
23449;SDS011;11897;45.438;12.128;2023-03-05T09:58:54;14.20;;;8.13;;
23449;SDS011;11897;45.438;12.128;2023-03-05T10:01:23;14.23;;;8.03;;
23449;SDS011;11897;45.438;12.128;2023-03-05T10:03:54;18.17;;;8.30;;
23449;SDS011;11897;45.438;12.128;2023-03-05T10:06:23;15.17;;;7.70;;
23449;SDS011;11897;45.438;12.128;2023-03-05T10:08:52;17.60;;;8.00;;
23449;SDS011;11897;45.438;12.128;2023-03-05T10:11:25;17.30;;;8.00;;
23449;SDS011;11897;45.438;12.128;2023-03-05T10:13:52;14.60;;;7.47;;
23449;SDS011;11897;45.438;12.128;2023-03-05T10:19:05;13.03;;;6.90;;
23449;SDS011;11897;45.438;12.128;2023-03-05T10:21:37;14.60;;;7.53;;
23449;SDS011;11897;45.438;12.128;2023-03-05T10:24:08;16.77;;;8.33;;
23449;SDS011;11897;45.438;12.128;2023-03-05T10:26:49;16.00;;;7.93;;
23449;SDS011;11897;45.438;12.128;2023-03-05T10:29:25;16.07;;;7.70;;
23449;SDS011;11897;45.438;12.128;2023-03-05T10:31:59;14.30;;;7.87;;
23449;SDS011;11897;45.438;12.128;2023-03-05T10:34:35;16.20;;;8.40;;
23449;SDS011;11897;45.438;12.128;2023-03-05T10:37:10;19.53;;;8.30;;
23449;SDS011;11897;45.438;12.128;2023-03-05T10:39:41;16.90;;;8.27;;
23449;SDS011;11897;45.438;12.128;2023-03-05T10:42:11;12.20;;;7.43;;
23449;SDS011;11897;45.438;12.128;2023-03-05T10:44:40;17.10;;;9.00;;
23449;SDS011;11897;45.438;12.128;2023-03-05T10:47:11;14.27;;;8.10;;
23449;SDS011;11897;45.438;12.128;2023-03-05T10:49:38;17.07;;;8.77;;
23449;SDS011;11897;45.438;12.128;2023-03-05T10:52:12;18.57;;;8.90;;
23449;SDS011;11897;45.438;12.128;2023-03-05T10:54:40;14.63;;;8.13;;
23449;SDS011;11897;45.438;12.128;2023-03-05T10:57:12;15.40;;;8.77;;
23449;SDS011;11897;45.438;12.128;2023-03-05T10:59:43;16.67;;;8.70;;
23449;SDS011;11897;45.438;12.128;2023-03-05T11:02:12;16.70;;;8.67;;
23449;SDS011;11897;45.438;12.128;2023-03-05T11:04:38;19.43;;;9.57;;
23449;SDS011;11897;45.438;12.128;2023-03-05T11:07:06;14.77;;;7.97;;
23449;SDS011;11897;45.438;12.128;2023-03-05T11:09:36;15.87;;;8.30;;
23449;SDS011;11897;45.438;12.128;2023-03-05T11:12:04;20.00;;;8.50;;
23449;SDS011;11897;45.438;12.128;2023-03-05T11:14:32;15.57;;;8.00;;
23449;SDS011;11897;45.438;12.128;2023-03-05T11:17:00;15.03;;;8.00;;
23449;SDS011;11897;45.438;12.128;2023-03-05T11:19:28;15.10;;;8.27;;
23449;SDS011;11897;45.438;12.128;2023-03-05T11:22:05;15.70;;;7.87;;
23449;SDS011;11897;45.438;12.128;2023-03-05T11:24:31;15.60;;;7.80;;
23449;SDS011;11897;45.438;12.128;2023-03-05T11:27:00;16.53;;;8.00;;
23449;SDS011;11897;45.438;12.128;2023-03-05T11:29:27;13.97;;;9.10;;
23449;SDS011;11897;45.438;12.128;2023-03-05T11:31:55;16.70;;;9.20;;
23449;SDS011;11897;45.438;12.128;2023-03-05T11:34:28;17.53;;;9.33;;
23449;SDS011;11897;45.438;12.128;2023-03-05T11:37:00;14.03;;;8.23;;
23449;SDS011;11897;45.438;12.128;2023-03-05T11:39:29;13.97;;;8.57;;
23449;SDS011;11897;45.438;12.128;2023-03-05T11:42:01;15.37;;;8.90;;
23449;SDS011;11897;45.438;12.128;2023-03-05T11:44:31;20.80;;;9.30;;
23449;SDS011;11897;45.438;12.128;2023-03-05T11:47:00;17.67;;;10.30;;
23449;SDS011;11897;45.438;12.128;2023-03-05T11:49:28;16.53;;;9.50;;
23449;SDS011;11897;45.438;12.128;2023-03-05T11:51:58;16.93;;;9.47;;
23449;SDS011;11897;45.438;12.128;2023-03-05T11:54:27;18.70;;;9.73;;
23449;SDS011;11897;45.438;12.128;2023-03-05T11:56:56;18.13;;;10.53;;
23449;SDS011;11897;45.438;12.128;2023-03-05T11:59:30;18.10;;;10.57;;
23449;SDS011;11897;45.438;12.128;2023-03-05T12:01:57;22.67;;;10.33;;
23449;SDS011;11897;45.438;12.128;2023-03-05T12:04:25;19.90;;;10.47;;
23449;SDS011;11897;45.438;12.128;2023-03-05T12:06:53;16.93;;;9.53;;
23449;SDS011;11897;45.438;12.128;2023-03-05T12:09:21;20.13;;;11.13;;
23449;SDS011;11897;45.438;12.128;2023-03-05T12:11:50;18.10;;;9.80;;
23449;SDS011;11897;45.438;12.128;2023-03-05T12:14:21;19.43;;;10.53;;
23449;SDS011;11897;45.438;12.128;2023-03-05T12:16:52;24.40;;;11.03;;
23449;SDS011;11897;45.438;12.128;2023-03-05T12:19:26;17.30;;;9.43;;
23449;SDS011;11897;45.438;12.128;2023-03-05T12:21:55;19.37;;;9.93;;
23449;SDS011;11897;45.438;12.128;2023-03-05T12:24:32;21.37;;;10.73;;
23449;SDS011;11897;45.438;12.128;2023-03-05T12:27:07;19.33;;;10.20;;
23449;SDS011;11897;45.438;12.128;2023-03-05T12:29:37;19.97;;;10.53;;
23449;SDS011;11897;45.438;12.128;2023-03-05T12:34:56;19.53;;;9.97;;
23449;SDS011;11897;45.438;12.128;2023-03-05T12:40:24;19.17;;;9.27;;
23449;SDS011;11897;45.438;12.128;2023-03-05T12:42:52;20.10;;;10.00;;
23449;SDS011;11897;45.438;12.128;2023-03-05T12:45:23;17.60;;;9.33;;
23449;SDS011;11897;45.438;12.128;2023-03-05T12:50:50;21.13;;;10.70;;
23449;SDS011;11897;45.438;12.128;2023-03-05T12:53:17;20.33;;;10.73;;
23449;SDS011;11897;45.438;12.128;2023-03-05T12:55:48;21.60;;;12.17;;
23449;SDS011;11897;45.438;12.128;2023-03-05T12:58:18;18.23;;;11.00;;
23449;SDS011;11897;45.438;12.128;2023-03-05T13:00:46;20.53;;;11.57;;
23449;SDS011;11897;45.438;12.128;2023-03-05T13:03:15;19.08;;;10.55;;
23449;SDS011;11897;45.438;12.128;2023-03-05T13:05:48;19.70;;;11.20;;
23449;SDS011;11897;45.438;12.128;2023-03-05T13:08:19;21.73;;;11.70;;
23449;SDS011;11897;45.438;12.128;2023-03-05T13:10:50;20.27;;;12.27;;
23449;SDS011;11897;45.438;12.128;2023-03-05T13:13:17;21.73;;;12.13;;
23449;SDS011;11897;45.438;12.128;2023-03-05T13:15:44;22.30;;;12.43;;
23449;SDS011;11897;45.438;12.128;2023-03-05T13:18:14;20.65;;;10.73;;
23449;SDS011;11897;45.438;12.128;2023-03-05T13:20:42;20.87;;;11.53;;
23449;SDS011;11897;45.438;12.128;2023-03-05T13:23:13;20.45;;;10.60;;
23449;SDS011;11897;45.438;12.128;2023-03-05T13:25:41;18.73;;;11.40;;
23449;SDS011;11897;45.438;12.128;2023-03-05T13:28:10;21.97;;;11.23;;
23449;SDS011;11897;45.438;12.128;2023-03-05T13:30:37;20.50;;;11.68;;
23449;SDS011;11897;45.438;12.128;2023-03-05T13:33:04;21.80;;;10.23;;
23449;SDS011;11897;45.438;12.128;2023-03-05T13:35:31;19.08;;;11.05;;
23449;SDS011;11897;45.438;12.128;2023-03-05T13:37:58;21.00;;;9.83;;
23449;SDS011;11897;45.438;12.128;2023-03-05T13:40:26;22.57;;;10.77;;
23449;SDS011;11897;45.438;12.128;2023-03-05T13:43:06;19.10;;;10.83;;
23449;SDS011;11897;45.438;12.128;2023-03-05T13:45:34;21.13;;;9.80;;
23449;SDS011;11897;45.438;12.128;2023-03-05T13:48:01;20.33;;;10.43;;
23449;SDS011;11897;45.438;12.128;2023-03-05T13:50:28;15.80;;;8.93;;
23449;SDS011;11897;45.438;12.128;2023-03-05T13:52:59;18.77;;;10.47;;
23449;SDS011;11897;45.438;12.128;2023-03-05T13:55:39;22.53;;;10.10;;
23449;SDS011;11897;45.438;12.128;2023-03-05T13:58:38;19.93;;;10.03;;
23449;SDS011;11897;45.438;12.128;2023-03-05T14:01:08;22.07;;;11.23;;
23449;SDS011;11897;45.438;12.128;2023-03-05T14:03:38;18.47;;;9.07;;
23449;SDS011;11897;45.438;12.128;2023-03-05T14:06:06;18.80;;;11.03;;
23449;SDS011;11897;45.438;12.128;2023-03-05T14:08:34;18.70;;;10.10;;
23449;SDS011;11897;45.438;12.128;2023-03-05T14:11:10;23.60;;;10.77;;
23449;SDS011;11897;45.438;12.128;2023-03-05T14:13:39;20.93;;;10.03;;
23449;SDS011;11897;45.438;12.128;2023-03-05T14:16:08;24.30;;;11.53;;
23449;SDS011;11897;45.438;12.128;2023-03-05T14:18:35;15.60;;;8.97;;
23449;SDS011;11897;45.438;12.128;2023-03-05T14:21:03;21.10;;;11.03;;
23449;SDS011;11897;45.438;12.128;2023-03-05T14:23:37;21.53;;;12.33;;
23449;SDS011;11897;45.438;12.128;2023-03-05T14:26:12;17.27;;;10.27;;
23449;SDS011;11897;45.438;12.128;2023-03-05T14:28:44;22.03;;;11.37;;
23449;SDS011;11897;45.438;12.128;2023-03-05T14:31:15;22.97;;;12.97;;
23449;SDS011;11897;45.438;12.128;2023-03-05T14:33:42;25.07;;;12.17;;
23449;SDS011;11897;45.438;12.128;2023-03-05T14:36:10;22.37;;;11.50;;